Chertsey, United Kingdom
Current Conditions -  °F | °C
As of 2:50 AM on Wednesday 26 Nov 2014 (Local Time) from EGLL Reporting Station
Moderate Rain Moderate Rain  
Wind Chill: 46°   Ceiling: 800
Heat Index: 46°   Visibility: 2.5mi
Dew Point: 45°   Wind: 2mph
Humidity: 93%   Direction: NA
Pressure: 29.94"   Gusts: NA
Location:  51.39°N, 0.51°W
Report Text: EGLL 260250Z VRB02KT 4000 RA SCT004 BKN008 08/07 Q1014
Loading
Personal Weather Stations






























Interactive Weather Map New forecast layout! Learn more

10-Day Weather Forecast

Advertisements
Track Severe Weather on mobile